METAR Data
IDs: Format: Raw Decoded Include TAF

Data at: 0232 UTC 19 Oct 2021

PAMD 190151Z AUTO 08034G45KT 3SM -RA BR BKN012 OVC016 06/04 A2948 RMK AO2 PK WND 07047/0115 SLP971 P0008 T00610044
PAMD 190141Z AUTO 08033G46KT 3SM -RA BR BKN012 OVC017 06/04 A2949 RMK AO2 PK WND 07047/0115 P0007
PAMD 190132Z AUTO 08035G46KT 2 1/2SM -RA BR SCT010 BKN014 OVC031 06/04 A2949 RMK AO2 PK WND 07047/0115 P0005
PAMD 190051Z AUTO 07036G49KT 4SM -RA BR BKN012 BKN018 OVC026 06/04 A2949 RMK AO2 PK WND 07049/0049 SLP973 P0007 T00610044
PAMD 190017Z AUTO 07038G47KT 3SM -RA BR BKN012 OVC018 06/04 A2949 RMK AO2 PK WND 07047/0011 P0004
PAMD 190008Z AUTO 08036G46KT 2 1/2SM -RA BR OVC012 06/04 A2949 RMK AO2 PK WND 08046/0007 P0002
PAMD 190000Z AUTO 08040G46KT 3SM -RA BR OVC012 06/04 A2949 RMK AO2 PK WND 07046/2353 P0001
PAMD 182351Z AUTO 07036G45KT 2 1/2SM -RA BR BKN012 OVC018 06/05 A2949 RMK AO2 PK WND 08050/2337 SLP973 P0006 60034 T00610050 10072 20061 53002
PAMD 182345Z AUTO 08036G50KT 2 1/2SM -RA BR BKN013 OVC018 06/05 A2948 RMK AO2 PK WND 08050/2337 P0005
PAMD 182343Z AUTO 08035G50KT 2 1/2SM -RA BR BKN015 OVC039 06/04 A2948 RMK AO2 PK WND 08050/2337 P0005
PAMD 182336Z AUTO 08030G46KT 2 1/2SM -RA BR BKN012 OVC020 06/05 A2949 RMK AO2 PK WND 08049/2254 P0004
PAMD 182251Z AUTO 08040G46KT 3SM -RA BR BKN015 BKN023 OVC029 06/04 A2949 RMK AO2 PK WND 09047/2228 SLP972 P0005 T00610044
PAMD 182247Z AUTO 08037G46KT 3SM -RA BR BKN015 BKN029 OVC036 06/04 A2948 RMK AO2 PK WND 09047/2228 P0004
PAMD 182157Z AUTO 08035G46KT 3SM -RA BR BKN014 OVC027 06/05 A2949 RMK AO2 PK WND 08046/2157 P0000
PAMD 182151Z AUTO 08039G46KT 3SM -RA BR BKN016 OVC027 06/04 A2949 RMK AO2 PK WND 08048/2127 SLP972 P0008 T00610044
PAMD 182149Z AUTO 08038G45KT 3SM -RA BR BKN016 OVC025 06/04 A2949 RMK AO2 PK WND 08048/2127 P0007
PAMD 182147Z AUTO 08040G45KT 2 1/2SM -RA BR BKN014 OVC027 06/04 A2949 RMK AO2 PK WND 08048/2127 P0007
PAMD 182125Z AUTO 08040G45KT 3SM -RA BR BKN014 OVC021 07/05 A2948 RMK AO2 PK WND 08048/2110 P0004
PAMD 182051Z AUTO 08037G47KT 3SM -RA BR BKN016 OVC034 07/05 A2948 RMK AO2 PK WND 07050/2039 SLP972 P0005 60015 T00670050 51009
PAMD 181951Z AUTO 08038G46KT 3SM -RA BR BKN018 BKN024 OVC029 07/05 A2947 RMK AO2 PK WND 07048/1909 SLP968 P0004 T00670050
PAMD 181851Z AUTO 08036G44KT 3SM -RA BR BKN019 OVC025 07/05 A2947 RMK AO2 PK WND 07046/1808 SLP967 P0006 T00670050
PAMD 181751Z AUTO 08038G45KT 4SM -RA BR OVC023 07/04 A2946 RMK AO2 PK WND 07052/1717 SLP963 P0003 60020 T00670044 10072 20067 53011
PAMD 181651Z AUTO 07036G47KT 4SM -RA BR BKN023 OVC029 07/04 A2944 RMK AO2 PK WND 07052/1629 SLP958 P0003 T00670044
PAMD 181551Z AUTO 07035G46KT 7SM -RA OVC021 07/04 A2943 RMK AO2 PK WND 08049/1534 SLP954 P0004 T00670044
PAMD 181451Z AUTO 08036G48KT 6SM -RA BR BKN019 OVC025 07/04 A2942 RMK AO2 PK WND 08050/1418 SLP952 P0003 60010 T00670044 53007
PAMD 181351Z AUTO 07036G48KT 6SM -RA BR BKN017 OVC023 07/04 A2942 RMK AO2 PK WND 07048/1348 SLP949 P0001 T00670044
PAMD 181259Z AUTO 08038G47KT 6SM -RA BR BKN015 BKN022 OVC027 07/05 A2941 RMK AO2 PK WND 08047/1253 P0000
PAMD 181254Z AUTO 08040G49KT 5SM -RA BR BKN013 BKN020 OVC027 07/05 A2941 RMK AO2 PK WND 08047/1253 P0000
PAMD 181251Z AUTO 09036G49KT 5SM -RA BR BKN015 OVC023 07/05 A2940 RMK AO2 PK WND 08049/1245 SLP945 P0006 T00670050
PAMD 181151Z AUTO 08036G43KT 4SM -RA BR BKN012 OVC018 07/05 A2940 RMK AO2 PK WND 08050/1107 SLP945 P0006 60031 70054 T00670050 10072 20056 51008
PAMD 181051Z AUTO 08034G48KT 4SM -RA BR OVC014 07/05 A2940 RMK AO2 PK WND 08050/1002 SLP945 P0006 T00670050
PAMD 181039Z AUTO 08034G44KT 4SM -RA BR BKN014 OVC020 07/05 A2940 RMK AO2 PK WND 08050/1002 P0004
PAMD 181025Z AUTO 08036G44KT 5SM -RA BR OVC016 07/05 A2940 RMK AO2 PK WND 08050/1002 P0002
PAMD 181006Z AUTO 08037G50KT 4SM -RA BR BKN014 OVC020 07/05 A2940 RMK AO2 PK WND 08050/1002 P0001
PAMD 180951Z AUTO 08040G47KT 5SM -RA BR OVC016 07/05 A2939 RMK AO2 PK WND 09049/0932 SLP939 P0003 T00670050
PAMD 180851Z AUTO 08033G46KT 5SM -RA BR OVC020 07/05 A2938 RMK AO2 PK WND 08050/0823 SLP937 P0003 60016 T00720050 53004
PAMD 180751Z AUTO 08035G47KT 5SM -RA BR BKN016 OVC021 07/04 A2938 RMK AO2 PK WND 09049/0741 SLP935 P0005 T00670044 400720044
PAMD 180708Z AUTO 09038G46KT 5SM -RA BR BKN016 OVC031 06/04 A2938 RMK AO2 PK WND 08046/0706 P0001
PAMD 180658Z AUTO 09039G45KT 7SM -RA BKN014 BKN021 OVC033 07/04 A2937 RMK AO2 PK WND 08044/0657 P0000
PAMD 180653Z AUTO 09036G45KT 6SM -RA BR SCT014 BKN019 OVC033 06/05 A2937 RMK AO2 PK WND 09040/0652 P0000
PAMD 180651Z AUTO 09037G45KT 5SM -RA BR BKN014 BKN021 OVC027 07/05 A2937 RMK AO2 PK WND 09050/0554 SLP933 P0008 T00670050
PAMD 180644Z AUTO 09034G47KT 3SM -RA BR SCT015 BKN021 OVC029 06/04 A2937 RMK AO2 PK WND 09050/0554 P0008
PAMD 180639Z AUTO 10040G47KT 2SM -RA BR BKN018 BKN023 OVC029 06/04 A2937 RMK AO2 PK WND 09050/0554 P0007
PAMD 180633Z AUTO 10036G48KT 1 3/4SM RA BR FEW014 BKN020 OVC027 06/04 A2938 RMK AO2 PK WND 09050/0554 P0006
PAMD 180629Z AUTO 10037G48KT 2SM RA BR BKN018 OVC023 06/04 A2937 RMK AO2 PK WND 09050/0554 P0005
PAMD 180551Z AUTO 09033G49KT 3SM -RA BR BKN018 OVC023 06/04 A2937 RMK AO2 PK WND 09049/0549 SLP933 P0004 60005 T00610044 10072 20056 53003
PAMD 180451Z AUTO 09039G47KT 6SM -RA FEW018 BKN025 OVC033 07/04 A2936 RMK AO2 PK WND 09048/0357 RAB24 SLP931 P0000 T00670039
PAMD 180351Z AUTO 09040G49KT 9SM BKN020 BKN027 OVC060 07/04 A2936 RMK AO2 PK WND 09050/0323 RAB11E24 SLP930 P0000 T00720039
PAMD 180335Z AUTO 09032G48KT 9SM BKN022 BKN038 OVC060 07/04 A2936 RMK AO2 PK WND 09050/0323 RAB11E24 P0000
PAMD 180251Z AUTO 09034G45KT 10SM SCT021 OVC060 07/03 A2936 RMK AO2 PK WND 09047/0225 RAE02 SLP931 P0000 60001 T00670033 55010
PAMD 180240Z AUTO 09034G44KT 10SM SCT021 BKN035 OVC060 07/03 A2936 RMK AO2 PK WND 09047/0225 RAE02 P0000
PAMD 180212Z AUTO 10033G44KT 9SM FEW017 BKN027 OVC070 07/03 A2936 RMK AO2 PK WND 11044/0205 RAE02 P0000
PAMD 180209Z AUTO 10035G44KT 10SM FEW017 BKN034 OVC070 07/03 A2936 RMK AO2 PK WND 11044/0205 RAE02 P0000
PAMD 180202Z AUTO 10034G44KT 10SM FEW017 BKN026 OVC065 07/03 A2936 RMK AO2 PK WND 11044/0200 RAE02 P0000
PAMD 180151Z AUTO 10034G42KT 6SM -RA SCT018 BKN032 OVC070 07/03 A2936 RMK AO2 PK WND 10045/0124 RAB46 SLP929 P0000 T00670033
PAMD 180051Z AUTO 10032G43KT 10SM BKN020 OVC065 07/04 A2938 RMK AO2 PK WND 10044/2353 RAE32 SLP935 P0001 T00670039
PAMD 180045Z AUTO 10035G42KT 10SM BKN020 BKN041 OVC070 06/04 A2938 RMK AO2 PK WND 10044/2353 RAE32 P0001
PAMD 180013Z AUTO 10034G42KT 6SM -RA BR SCT015 SCT025 OVC035 06/04 A2939 RMK AO2 PK WND 10044/2353 P0001
PAMD 172351Z AUTO 11033G42KT 4SM -RA BR SCT016 BKN024 OVC033 06/04 A2939 RMK AO2 PK WND 12042/2349 SLP941 P0004 60014 T00560039 10067 20044 56018
PAMD 172338Z AUTO 11028G42KT 10SM -RA SCT017 BKN024 OVC047 06/04 A2940 RMK AO2 PK WND 11042/2331 P0002
PAMD 172334Z AUTO 11028G42KT 10SM -RA SCT015 BKN034 OVC047 06/04 A2940 RMK AO2 PK WND 11042/2331 P0002
PAMD 172251Z AUTO 12028G38KT 5SM -RA BR SCT014 BKN020 OVC035 06/04 A2940 RMK AO2 PK WND 12041/2209 SLP944 P0002 T00560044
PAMD 172247Z AUTO 12030G36KT 5SM -RA BR FEW014 BKN023 OVC046 06/04 A2941 RMK AO2 PK WND 12041/2209 P0002
PAMD 172231Z AUTO 11031G40KT 10SM -RA FEW016 BKN034 OVC047 06/04 A2941 RMK AO2 PK WND 12041/2209 P0000
PAMD 172228Z AUTO 11027G36KT 10SM -RA FEW016 BKN028 OVC045 06/04 A2942 RMK AO2 PK WND 12041/2209 P0000
PAMD 172214Z AUTO 11027G41KT 8SM -RA SCT016 BKN032 OVC046 06/04 A2942 RMK AO2 PK WND 12041/2209 P0000
PAMD 172208Z AUTO 12030G40KT 9SM -RA SCT016 BKN027 OVC046 06/04 A2942 RMK AO2 PK WND 11041/2153 P0000
PAMD 172151Z AUTO 11032G37KT 9SM -RA FEW012 BKN033 OVC048 06/04 A2942 RMK AO2 PK WND 12040/2121 RAE07B25 SLP951 P0002 T00560039
PAMD 172103Z AUTO 12029G34KT 10SM -RA FEW015 BKN033 OVC048 05/03 A2944 RMK AO2 PK WND 13036/2052 P0001
PAMD 172051Z AUTO 13034G48KT 4SM -RA BR SCT015 BKN024 OVC041 05/03 A2945 RMK AO2 PK WND 13048/2043 RAB14 SLP959 P0003 60006 T00500028 58018
PAMD 172044Z AUTO 13037G48KT 4SM -RA BR BKN017 BKN028 OVC055 06/03 A2944 RMK AO2 PK WND 13048/2043 RAB14 PRESFR P0002
PAMD 172039Z AUTO 12032G42KT 4SM -RA BR SCT017 BKN030 OVC070 06/04 A2945 RMK AO2 PK WND 12042/2036 RAB14 P0002
PAMD 172037Z AUTO 12036G42KT 5SM -RA BR SCT017 BKN027 OVC060 06/04 A2945 RMK AO2 PK WND 12042/2036 RAB14 P0001
PAMD 171951Z AUTO 11027G34KT 10SM FEW017 BKN043 OVC070 06/03 A2947 RMK AO2 PK WND 12041/1933 RAE11B34E49 SLP967 P0002 T00560033
PAMD 171943Z AUTO 12029G39KT 9SM -RA FEW017 BKN040 OVC070 06/04 A2947 RMK AO2 PK WND 12041/1933 RAE11B34 P0002
PAMD 171939Z AUTO 12029G41KT 6SM -RA BR SCT017 BKN029 OVC070 06/04 A2947 RMK AO2 PK WND 12041/1933 RAE11B34 P0002
PAMD 171921Z AUTO 11027G32KT 10SM FEW019 BKN039 OVC065 06/04 A2948 RMK AO2 PK WND 12039/1909 RAE11 P0002
PAMD 171851Z AUTO 13026G34KT 5SM RA BR BKN018 OVC024 06/04 A2949 RMK AO2 PK WND 12034/1845 RAB00 SLP973 P0001 T00610039
PAMD 171751Z AUTO 12025G32KT 10SM BKN017 BKN024 OVC055 07/04 A2950 RMK AO2 PK WND 11032/1749 RAE37 SLP977 P0002 60004 T00670039 10067 20044 58030
PAMD 171651Z AUTO 13020G29KT 4SM -RA BR BKN016 BKN021 OVC026 06/03 A2954 RMK AO2 PK WND 12030/1620 RAE07B26 SLP990 P0002 T00560033
PAMD 171551Z AUTO 12023G29KT 10SM -RA SCT020 OVC027 06/03 A2956 RMK AO2 PK WND 12029/1549 RAB27 SLP996 P0000 T00610028
PAMD 171523Z AUTO 12019G24KT 10SM SCT018 BKN026 OVC033 06/03 A2958 RMK AO2
PAMD 171519Z AUTO 12020G24KT 10SM SCT018 BKN033 OVC050 06/03 A2958 RMK AO2
PAMD 171451Z AUTO 13019KT 10SM BKN021 BKN027 OVC055 06/02 A2959 RMK AO2 SLP007 T00560022 58030